createdAt,value
2022-12-25T00:01:06.375Z,99.90
2022-12-25T00:03:33.090Z,99.90
2022-12-25T00:05:59.862Z,99.90
2022-12-25T00:08:26.437Z,99.90
2022-12-25T00:11:10.930Z,99.90
2022-12-25T00:13:37.844Z,99.90
2022-12-25T00:16:10.756Z,99.90
2022-12-25T00:18:37.392Z,99.90
2022-12-25T00:21:05.649Z,99.90
2022-12-25T00:23:32.795Z,99.90
2022-12-25T00:25:59.397Z,99.90
2022-12-25T00:28:26.173Z,99.90
2022-12-25T00:30:52.826Z,99.90
2022-12-25T00:33:19.404Z,99.90
2022-12-25T00:35:56.373Z,99.90
2022-12-25T00:38:22.943Z,99.90
2022-12-25T00:40:49.505Z,99.90
2022-12-25T00:43:16.178Z,99.90
2022-12-25T00:45:42.814Z,99.90
2022-12-25T00:48:09.405Z,99.90
2022-12-25T00:50:38.407Z,99.90
2022-12-25T00:53:04.995Z,99.90
2022-12-25T00:55:31.621Z,99.90
2022-12-25T00:57:58.866Z,99.90
2022-12-25T01:00:25.483Z,99.90
2022-12-25T01:02:52.297Z,99.90
2022-12-25T01:05:18.988Z,99.90
2022-12-25T01:07:45.565Z,99.90
2022-12-25T01:10:24.466Z,99.90
2022-12-25T01:12:51.670Z,99.90
2022-12-25T01:15:19.002Z,99.90
2022-12-25T01:17:45.692Z,99.90
2022-12-25T01:20:13.037Z,99.90
2022-12-25T01:22:39.667Z,99.90
2022-12-25T01:25:07.165Z,99.90
2022-12-25T01:27:33.778Z,99.90
2022-12-25T01:30:00.419Z,99.90
2022-12-25T01:32:27.194Z,99.90
2022-12-25T01:34:56.043Z,99.90
2022-12-25T01:37:24.653Z,99.90
2022-12-25T01:39:51.402Z,99.90
2022-12-25T01:42:18.745Z,99.90
2022-12-25T01:44:45.318Z,99.90
2022-12-25T01:47:12.270Z,99.90
2022-12-25T01:49:40.941Z,99.90
2022-12-25T01:52:10.588Z,99.90
2022-12-25T01:54:42.745Z,99.90
2022-12-25T01:57:11.926Z,99.90
2022-12-25T01:59:39.206Z,99.90
2022-12-25T02:02:05.834Z,99.90
2022-12-25T02:04:40.056Z,99.90
2022-12-25T02:07:07.907Z,99.90
2022-12-25T02:09:34.749Z,99.90
2022-12-25T02:12:01.600Z,99.90
2022-12-25T02:14:29.922Z,99.90
2022-12-25T02:17:05.710Z,99.90
2022-12-25T02:19:47.685Z,99.90
2022-12-25T02:22:33.172Z,99.90
2022-12-25T02:25:02.851Z,99.90
2022-12-25T02:27:45.899Z,99.90
2022-12-25T02:30:12.796Z,99.90
2022-12-25T02:32:51.467Z,99.90
2022-12-25T02:35:20.616Z,99.90
2022-12-25T02:37:47.183Z,99.90
2022-12-25T02:40:16.959Z,99.90
2022-12-25T02:43:08.220Z,99.90
2022-12-25T02:45:56.461Z,99.90
2022-12-25T02:48:42.867Z,99.90
2022-12-25T02:51:29.929Z,99.90
2022-12-25T02:54:16.134Z,99.90
2022-12-25T02:57:02.658Z,99.90
2022-12-25T02:59:48.836Z,99.90
2022-12-25T03:02:34.508Z,99.90
2022-12-25T03:05:22.800Z,99.90
2022-12-25T03:07:49.819Z,99.90
2022-12-25T03:10:35.933Z,99.90
2022-12-25T03:13:07.942Z,99.90
2022-12-25T03:15:53.444Z,99.90
2022-12-25T03:18:24.207Z,99.90
2022-12-25T03:21:09.994Z,99.90
2022-12-25T03:23:56.684Z,99.90
2022-12-25T03:26:43.438Z,99.90
2022-12-25T03:29:10.033Z,99.90
2022-12-25T03:31:43.423Z,99.90
2022-12-25T03:34:34.838Z,99.90
2022-12-25T03:37:19.424Z,99.90
2022-12-25T03:39:55.258Z,99.90
2022-12-25T03:42:43.116Z,99.90
2022-12-25T03:45:36.913Z,99.90
2022-12-25T03:48:13.980Z,99.90
2022-12-25T03:51:02.476Z,99.90
2022-12-25T03:53:50.063Z,99.90
2022-12-25T03:56:36.174Z,99.90
2022-12-25T03:59:23.768Z,99.90
2022-12-25T04:02:09.889Z,99.90
2022-12-25T04:04:55.421Z,99.90
2022-12-25T04:07:40.503Z,99.90
2022-12-25T04:10:26.017Z,99.90
2022-12-25T04:13:10.984Z,99.90
2022-12-25T04:15:55.894Z,99.90
2022-12-25T04:18:41.038Z,99.90
2022-12-25T04:21:26.162Z,99.90
2022-12-25T04:24:11.317Z,99.90
2022-12-25T04:26:56.507Z,99.90
2022-12-25T04:29:41.627Z,99.90
2022-12-25T04:32:26.735Z,99.90
2022-12-25T04:35:12.018Z,99.90
2022-12-25T04:37:38.705Z,99.90
2022-12-25T04:40:06.366Z,99.90
2022-12-25T04:42:33.093Z,99.90
2022-12-25T04:44:59.668Z,99.90
2022-12-25T04:47:26.330Z,99.90
2022-12-25T04:49:52.978Z,99.90
2022-12-25T04:52:19.587Z,99.90
2022-12-25T04:54:46.183Z,99.90
2022-12-25T04:57:12.910Z,99.90
2022-12-25T04:59:39.485Z,99.90
2022-12-25T05:02:06.147Z,99.90
2022-12-25T05:04:32.868Z,99.90
2022-12-25T05:06:59.602Z,99.90
2022-12-25T05:09:26.709Z,99.90
2022-12-25T05:11:53.381Z,99.90
2022-12-25T05:14:19.959Z,99.90
2022-12-25T05:16:46.659Z,99.90
2022-12-25T05:19:13.410Z,99.90
2022-12-25T05:21:40.007Z,99.90
2022-12-25T05:24:06.731Z,99.90
2022-12-25T05:26:33.426Z,99.90
2022-12-25T05:29:00.199Z,99.90
2022-12-25T05:31:26.812Z,99.90
2022-12-25T05:33:53.556Z,99.90
2022-12-25T05:36:20.296Z,99.90
2022-12-25T05:38:46.890Z,99.90
2022-12-25T05:41:13.579Z,99.90
2022-12-25T05:43:40.153Z,99.90
2022-12-25T05:46:07.835Z,99.90
2022-12-25T05:48:36.833Z,99.90
2022-12-25T05:51:04.283Z,99.90
2022-12-25T05:53:31.033Z,99.90
2022-12-25T05:56:00.389Z,99.90
2022-12-25T05:58:27.130Z,99.90
2022-12-25T06:00:53.714Z,99.90
2022-12-25T06:03:20.441Z,99.90
2022-12-25T06:05:47.085Z,99.90
2022-12-25T06:08:13.666Z,99.90
2022-12-25T06:10:40.267Z,99.90
2022-12-25T06:13:06.886Z,99.90
2022-12-25T06:15:33.639Z,99.90
2022-12-25T06:18:00.557Z,99.90
2022-12-25T06:20:27.691Z,99.90
2022-12-25T06:22:54.284Z,99.90
2022-12-25T06:25:20.994Z,99.90
2022-12-25T06:27:47.568Z,99.90
2022-12-25T06:30:14.344Z,99.90
2022-12-25T06:32:40.915Z,99.90
2022-12-25T06:35:08.024Z,99.90
2022-12-25T06:37:34.694Z,99.90
2022-12-25T06:40:01.278Z,99.90
2022-12-25T06:42:27.958Z,99.90
2022-12-25T06:44:54.573Z,99.90
2022-12-25T06:47:21.156Z,99.90
2022-12-25T06:49:47.720Z,99.90
2022-12-25T06:52:14.320Z,99.90
2022-12-25T06:54:40.964Z,99.90
2022-12-25T06:57:07.637Z,99.90
2022-12-25T06:59:34.262Z,99.90
2022-12-25T07:02:00.951Z,99.90
2022-12-25T07:04:38.681Z,99.90
2022-12-25T07:07:09.069Z,99.90
2022-12-25T07:09:36.348Z,99.90
2022-12-25T07:12:04.196Z,99.90
2022-12-25T07:14:30.882Z,99.90
2022-12-25T07:16:57.712Z,99.90
2022-12-25T07:19:24.427Z,99.90
2022-12-25T07:21:51.082Z,99.90
2022-12-25T07:24:21.036Z,99.90
2022-12-25T07:26:47.734Z,99.90
2022-12-25T07:29:14.529Z,99.90
2022-12-25T07:31:41.151Z,99.90
2022-12-25T07:34:07.812Z,99.90
2022-12-25T07:36:34.394Z,99.90
2022-12-25T07:39:01.002Z,99.90
2022-12-25T07:41:27.599Z,99.90
2022-12-25T07:43:54.426Z,99.90
2022-12-25T07:46:21.567Z,99.90
2022-12-25T07:48:48.295Z,99.90
2022-12-25T07:51:16.024Z,99.90
2022-12-25T07:53:42.629Z,99.90
2022-12-25T07:56:14.058Z,99.90
2022-12-25T07:58:40.987Z,99.90
2022-12-25T08:01:10.007Z,99.90
2022-12-25T08:03:36.947Z,99.90
2022-12-25T08:06:05.197Z,99.90
2022-12-25T08:08:32.006Z,99.90
2022-12-25T08:10:58.769Z,99.90
2022-12-25T08:13:25.415Z,99.90
2022-12-25T08:15:57.239Z,99.90
2022-12-25T08:18:29.434Z,99.90
2022-12-25T08:20:56.673Z,99.90
2022-12-25T08:23:23.265Z,99.90
2022-12-25T08:25:49.843Z,99.90
2022-12-25T08:28:16.597Z,99.90
2022-12-25T08:30:43.227Z,99.90
2022-12-25T08:33:09.999Z,99.90
2022-12-25T08:35:36.914Z,99.90
2022-12-25T08:38:03.496Z,99.90
2022-12-25T08:40:30.213Z,99.90
2022-12-25T08:42:57.166Z,99.90
2022-12-25T08:45:27.379Z,99.90
2022-12-25T08:47:57.851Z,99.90
2022-12-25T08:50:24.873Z,99.90
2022-12-25T08:52:51.622Z,99.90
2022-12-25T08:55:18.350Z,99.90
2022-12-25T08:57:44.935Z,99.90
2022-12-25T09:00:11.765Z,99.90
2022-12-25T09:02:38.431Z,99.90
2022-12-25T09:05:05.517Z,99.90
2022-12-25T09:07:32.081Z,99.90
2022-12-25T09:09:58.651Z,99.90
2022-12-25T09:12:25.270Z,99.90
2022-12-25T09:14:51.857Z,99.90
2022-12-25T09:17:18.430Z,99.90
2022-12-25T09:19:45.035Z,99.90
2022-12-25T09:22:11.632Z,99.90
2022-12-25T09:24:39.280Z,99.90
2022-12-25T09:27:05.848Z,99.90
2022-12-25T09:29:32.459Z,99.90
2022-12-25T09:31:59.025Z,99.90
2022-12-25T09:34:25.656Z,99.90
2022-12-25T09:36:52.282Z,99.90
2022-12-25T09:39:18.913Z,99.90
2022-12-25T09:41:48.567Z,99.90
2022-12-25T09:44:18.407Z,99.90
2022-12-25T09:46:48.765Z,99.90
2022-12-25T09:49:30.459Z,99.90
2022-12-25T09:51:59.503Z,99.90
2022-12-25T09:54:36.588Z,99.90
2022-12-25T09:57:03.510Z,99.90
2022-12-25T09:59:30.099Z,99.90
2022-12-25T10:02:04.170Z,99.90
2022-12-25T10:04:45.421Z,99.90
2022-12-25T10:07:26.721Z,99.90
2022-12-25T10:10:12.100Z,99.90
2022-12-25T10:12:43.023Z,99.90
2022-12-25T10:15:18.424Z,99.90
2022-12-25T10:17:55.948Z,99.90
2022-12-25T10:20:22.548Z,99.90
2022-12-25T10:22:52.662Z,99.90
2022-12-25T10:25:21.079Z,99.90
2022-12-25T10:27:52.568Z,99.90
2022-12-25T10:30:20.681Z,99.90
2022-12-25T10:32:47.650Z,99.90
2022-12-25T10:35:15.262Z,99.90
2022-12-25T10:37:42.829Z,99.90
2022-12-25T10:40:32.812Z,99.90
2022-12-25T10:43:06.565Z,99.90
2022-12-25T10:45:42.172Z,99.90
2022-12-25T10:48:14.234Z,99.90
2022-12-25T10:50:43.915Z,99.90
2022-12-25T10:53:17.125Z,99.90
2022-12-25T10:55:53.107Z,99.90
2022-12-25T10:58:19.941Z,99.90
2022-12-25T11:00:51.927Z,99.90
2022-12-25T11:03:23.491Z,99.90
2022-12-25T11:05:51.460Z,99.90
2022-12-25T11:08:22.475Z,99.90
2022-12-25T11:10:53.639Z,99.90
2022-12-25T11:13:27.830Z,99.90
2022-12-25T11:16:05.163Z,99.90
2022-12-25T11:18:48.707Z,99.90
2022-12-25T11:21:19.482Z,99.90
2022-12-25T11:23:47.776Z,99.90
2022-12-25T11:26:15.097Z,99.90
2022-12-25T11:28:42.364Z,99.90
2022-12-25T11:31:12.981Z,99.90
2022-12-25T11:33:46.416Z,99.90
2022-12-25T11:36:17.466Z,99.90
2022-12-25T11:38:44.051Z,99.90
2022-12-25T11:41:11.409Z,99.90
2022-12-25T11:43:44.560Z,99.90
2022-12-25T11:46:17.437Z,99.90
2022-12-25T11:48:47.801Z,99.40
2022-12-25T11:51:15.445Z,98.80
2022-12-25T11:53:48.525Z,97.40
2022-12-25T11:56:17.309Z,96.20
2022-12-25T11:58:45.482Z,95.30
2022-12-25T12:01:17.186Z,94.40
2022-12-25T12:03:44.291Z,93.90
2022-12-25T12:06:32.599Z,93.50
2022-12-25T12:09:05.251Z,93.20
2022-12-25T12:11:33.481Z,93.40
2022-12-25T12:14:12.336Z,93.20
2022-12-25T12:16:39.028Z,93.00
2022-12-25T12:19:31.893Z,93.40
2022-12-25T12:22:00.105Z,93.40
2022-12-25T12:24:33.408Z,93.90
2022-12-25T12:27:07.641Z,94.10
2022-12-25T12:29:39.555Z,94.30
2022-12-25T12:32:19.882Z,94.50
2022-12-25T12:34:49.877Z,94.50
2022-12-25T12:37:24.480Z,94.70
2022-12-25T12:39:53.741Z,94.10
2022-12-25T12:42:22.775Z,93.90
2022-12-25T12:44:49.874Z,94.30
2022-12-25T12:47:27.927Z,94.80
2022-12-25T12:49:58.649Z,94.70
2022-12-25T12:52:34.103Z,95.20
2022-12-25T12:55:02.589Z,95.10
2022-12-25T12:57:32.740Z,95.40
2022-12-25T13:00:04.809Z,95.30
2022-12-25T13:02:35.609Z,95.40
2022-12-25T13:05:21.121Z,95.30
2022-12-25T13:07:47.706Z,95.50
2022-12-25T13:10:23.823Z,94.90
2022-12-25T13:12:54.388Z,95.20
2022-12-25T13:15:22.916Z,94.30
2022-12-25T13:17:50.091Z,94.00
2022-12-25T13:20:34.529Z,93.70
2022-12-25T13:23:01.146Z,92.90
2022-12-25T13:25:27.742Z,93.40
2022-12-25T13:27:55.680Z,93.40
2022-12-25T13:30:22.727Z,93.50
2022-12-25T13:32:49.688Z,93.50
2022-12-25T13:35:16.857Z,93.50
2022-12-25T13:37:44.142Z,93.30
2022-12-25T13:40:29.003Z,93.30
2022-12-25T13:42:58.467Z,93.30
2022-12-25T13:45:26.321Z,93.80
2022-12-25T13:47:55.535Z,93.70
2022-12-25T13:50:25.842Z,93.90
2022-12-25T13:52:54.981Z,94.10
2022-12-25T13:55:23.374Z,94.50
2022-12-25T13:57:54.453Z,94.00
2022-12-25T14:00:28.057Z,94.40
2022-12-25T14:02:54.941Z,94.30
2022-12-25T14:05:27.819Z,94.50
2022-12-25T14:07:57.582Z,94.50
2022-12-25T14:10:25.441Z,95.10
2022-12-25T14:12:53.202Z,95.60
2022-12-25T14:15:21.448Z,96.00
2022-12-25T14:17:49.510Z,96.20
2022-12-25T14:20:26.969Z,96.60
2022-12-25T14:22:55.489Z,96.80
2022-12-25T14:25:24.799Z,97.40
2022-12-25T14:27:52.287Z,97.70
2022-12-25T14:30:19.132Z,98.10
2022-12-25T14:32:50.676Z,98.30
2022-12-25T14:35:23.135Z,98.50
2022-12-25T14:37:54.153Z,98.80
2022-12-25T14:40:23.827Z,99.10
2022-12-25T14:43:00.710Z,99.10
2022-12-25T14:45:28.951Z,99.30
2022-12-25T14:47:57.236Z,99.50
2022-12-25T14:50:28.775Z,99.70
2022-12-25T14:52:56.005Z,99.80
2022-12-25T14:55:24.346Z,99.90
2022-12-25T14:57:52.962Z,99.90
2022-12-25T15:00:24.331Z,99.90
2022-12-25T15:02:52.739Z,99.90
2022-12-25T15:05:24.934Z,99.90
2022-12-25T15:08:02.015Z,99.90
2022-12-25T15:10:59.029Z,99.90
2022-12-25T15:13:17.825Z,99.90
2022-12-25T15:16:06.152Z,99.90
2022-12-25T15:18:40.133Z,99.90
2022-12-25T15:21:07.234Z,99.90
2022-12-25T15:23:33.937Z,99.90
2022-12-25T15:26:00.684Z,99.90
2022-12-25T15:28:27.274Z,99.90
2022-12-25T15:30:53.870Z,99.90
2022-12-25T15:33:20.871Z,99.90
2022-12-25T15:35:47.558Z,99.90
2022-12-25T15:38:14.397Z,99.90
2022-12-25T15:40:41.580Z,99.90
2022-12-25T15:43:14.660Z,99.90
2022-12-25T15:45:55.893Z,99.90
2022-12-25T15:48:22.553Z,99.90
2022-12-25T15:50:49.389Z,99.90
2022-12-25T15:53:16.000Z,99.90
2022-12-25T15:55:42.607Z,99.90
2022-12-25T15:58:12.854Z,99.90
2022-12-25T16:00:39.472Z,99.90
2022-12-25T16:03:06.196Z,99.90
2022-12-25T16:05:32.899Z,99.90
2022-12-25T16:07:59.480Z,99.90
2022-12-25T16:10:26.136Z,99.90
2022-12-25T16:12:52.715Z,99.90
2022-12-25T16:15:19.308Z,99.90
2022-12-25T16:17:45.884Z,99.90
2022-12-25T16:20:12.647Z,99.90
2022-12-25T16:22:41.972Z,99.90
2022-12-25T16:25:12.460Z,99.90
2022-12-25T16:27:39.046Z,99.90
2022-12-25T16:30:05.848Z,99.90
2022-12-25T16:32:32.570Z,99.90
2022-12-25T16:34:59.144Z,99.90
2022-12-25T16:37:27.178Z,99.90
2022-12-25T16:39:53.733Z,99.90
2022-12-25T16:42:20.315Z,99.90
2022-12-25T16:44:46.890Z,99.90
2022-12-25T16:47:13.471Z,99.90
2022-12-25T16:49:40.035Z,99.90
2022-12-25T16:52:06.636Z,99.90
2022-12-25T16:54:33.203Z,99.90
2022-12-25T16:56:59.872Z,99.90
2022-12-25T16:59:28.143Z,99.90
2022-12-25T17:01:54.883Z,99.90
2022-12-25T17:04:21.993Z,99.90
2022-12-25T17:06:48.709Z,99.90
2022-12-25T17:09:15.282Z,99.90
2022-12-25T17:11:41.964Z,99.90
2022-12-25T17:14:10.073Z,99.90
2022-12-25T17:16:37.575Z,99.90
2022-12-25T17:19:05.525Z,99.90
2022-12-25T17:21:35.002Z,99.90
2022-12-25T17:24:03.549Z,99.90
2022-12-25T17:26:31.974Z,99.90
2022-12-25T17:28:58.589Z,99.90
2022-12-25T17:31:25.352Z,99.90
2022-12-25T17:33:51.964Z,99.90
2022-12-25T17:36:19.802Z,99.90
2022-12-25T17:38:47.545Z,99.90
2022-12-25T17:41:15.174Z,99.90
2022-12-25T17:43:42.498Z,99.90
2022-12-25T17:46:11.345Z,99.90
2022-12-25T17:48:37.987Z,99.90
2022-12-25T17:51:08.349Z,99.90
2022-12-25T17:53:35.938Z,99.90
2022-12-25T17:56:02.756Z,99.90
2022-12-25T17:58:29.500Z,99.90
2022-12-25T18:00:56.069Z,99.90
2022-12-25T18:03:23.025Z,99.90
2022-12-25T18:05:49.741Z,99.90
2022-12-25T18:08:16.483Z,99.90
2022-12-25T18:10:43.522Z,99.90
2022-12-25T18:13:10.768Z,99.90
2022-12-25T18:15:38.411Z,99.90
2022-12-25T18:18:05.253Z,99.90
2022-12-25T18:20:39.340Z,99.90
2022-12-25T18:23:06.618Z,99.90
2022-12-25T18:25:33.809Z,99.90
2022-12-25T18:28:02.707Z,99.90
2022-12-25T18:30:29.551Z,99.90
2022-12-25T18:32:56.219Z,99.90
2022-12-25T18:35:23.334Z,99.90
2022-12-25T18:37:50.172Z,99.90
2022-12-25T18:40:16.812Z,99.90
2022-12-25T18:42:46.178Z,99.90
2022-12-25T18:45:13.955Z,99.90
2022-12-25T18:47:40.706Z,99.90
2022-12-25T18:50:08.016Z,99.90
2022-12-25T18:52:50.227Z,99.90
2022-12-25T18:55:18.165Z,99.90
2022-12-25T18:57:44.820Z,99.90
2022-12-25T19:00:11.649Z,99.90
2022-12-25T19:02:38.389Z,99.90
2022-12-25T19:05:06.030Z,99.90
2022-12-25T19:07:32.754Z,99.90
2022-12-25T19:09:59.390Z,99.90
2022-12-25T19:12:26.032Z,99.90
2022-12-25T19:14:53.443Z,99.90
2022-12-25T19:17:20.037Z,99.90
2022-12-25T19:19:46.711Z,99.90
2022-12-25T19:22:13.936Z,99.90
2022-12-25T19:24:40.656Z,99.90
2022-12-25T19:27:07.227Z,99.90
2022-12-25T19:29:33.877Z,99.90
2022-12-25T19:32:00.623Z,99.90
2022-12-25T19:34:27.461Z,99.90
2022-12-25T19:36:54.152Z,99.90
2022-12-25T19:39:20.970Z,99.90
2022-12-25T19:41:47.830Z,99.90
2022-12-25T19:44:14.539Z,99.90
2022-12-25T19:46:41.222Z,99.90
2022-12-25T19:49:10.483Z,99.90
2022-12-25T19:51:38.683Z,99.90
2022-12-25T19:54:05.857Z,99.90
2022-12-25T19:56:33.133Z,99.90
2022-12-25T19:58:59.993Z,99.90
2022-12-25T20:01:28.163Z,99.90
2022-12-25T20:03:54.916Z,99.90
2022-12-25T20:06:29.286Z,99.90
2022-12-25T20:08:57.631Z,99.90
2022-12-25T20:11:25.197Z,99.90
2022-12-25T20:13:52.110Z,99.90
2022-12-25T20:16:18.767Z,99.90
2022-12-25T20:18:45.426Z,99.90
2022-12-25T20:21:16.032Z,99.90
2022-12-25T20:23:43.113Z,99.90
2022-12-25T20:26:10.065Z,99.90
2022-12-25T20:28:40.060Z,99.90
2022-12-25T20:31:07.780Z,99.90
2022-12-25T20:33:34.539Z,99.90
2022-12-25T20:36:02.299Z,99.90
2022-12-25T20:38:29.234Z,99.90
2022-12-25T20:41:25.775Z,99.90
2022-12-25T20:43:46.453Z,99.90
2022-12-25T20:46:13.306Z,99.90
2022-12-25T20:48:40.190Z,99.90
2022-12-25T20:51:07.935Z,99.90
2022-12-25T20:53:34.914Z,99.90
2022-12-25T20:56:01.629Z,99.90
2022-12-25T20:58:28.339Z,99.90
2022-12-25T21:00:55.281Z,99.90
2022-12-25T21:03:22.185Z,99.90
2022-12-25T21:05:53.073Z,99.90
2022-12-25T21:08:21.009Z,99.90
2022-12-25T21:10:50.604Z,99.90
2022-12-25T21:13:17.490Z,99.90
2022-12-25T21:15:44.754Z,99.90
2022-12-25T21:18:11.359Z,99.90
2022-12-25T21:20:38.056Z,99.90
2022-12-25T21:23:04.752Z,99.90
2022-12-25T21:25:31.367Z,99.90
2022-12-25T21:27:58.034Z,99.90
2022-12-25T21:30:24.678Z,99.90
2022-12-25T21:33:26.841Z,99.90
2022-12-25T21:35:53.429Z,99.90
2022-12-25T21:38:20.027Z,99.90
2022-12-25T21:40:46.641Z,99.90
2022-12-25T21:43:16.176Z,99.90
2022-12-25T21:45:42.823Z,99.90
2022-12-25T21:48:09.445Z,99.90
2022-12-25T21:50:55.808Z,99.90
2022-12-25T21:53:22.372Z,99.90
2022-12-25T21:55:58.936Z,99.90
2022-12-25T21:58:25.613Z,99.90
2022-12-25T22:00:52.391Z,99.90
2022-12-25T22:03:19.253Z,99.90
2022-12-25T22:06:04.441Z,99.90
2022-12-25T22:08:31.984Z,99.90
2022-12-25T22:11:02.282Z,99.90
2022-12-25T22:13:47.465Z,99.90
2022-12-25T22:16:32.636Z,99.90
2022-12-25T22:19:18.092Z,99.90
2022-12-25T22:21:44.733Z,99.90
2022-12-25T22:24:11.329Z,99.90
2022-12-25T22:26:38.018Z,99.90
2022-12-25T22:29:04.610Z,99.90
2022-12-25T22:31:31.425Z,99.90
2022-12-25T22:33:58.039Z,99.90
2022-12-25T22:36:24.612Z,99.90
2022-12-25T22:38:51.188Z,99.90
2022-12-25T22:41:17.784Z,99.90
2022-12-25T22:44:15.771Z,99.90
2022-12-25T22:46:30.963Z,99.90
2022-12-25T22:48:57.594Z,99.90
2022-12-25T22:51:24.231Z,99.90
2022-12-25T22:53:50.917Z,99.90
2022-12-25T22:56:17.516Z,99.90
2022-12-25T22:58:44.316Z,99.90
2022-12-25T23:01:11.997Z,99.90
2022-12-25T23:03:38.726Z,99.90
2022-12-25T23:06:05.536Z,99.90
2022-12-25T23:08:32.197Z,99.90
2022-12-25T23:11:02.712Z,99.90
2022-12-25T23:13:48.013Z,99.90
2022-12-25T23:16:15.402Z,99.90
2022-12-25T23:19:00.762Z,99.90
2022-12-25T23:21:46.524Z,99.90
2022-12-25T23:24:31.540Z,99.90
2022-12-25T23:26:58.493Z,99.90
2022-12-25T23:29:37.267Z,99.90
2022-12-25T23:32:08.483Z,99.90
2022-12-25T23:34:35.903Z,99.90
2022-12-25T23:37:02.526Z,99.90
2022-12-25T23:39:29.113Z,99.90
2022-12-25T23:41:55.795Z,99.90
2022-12-25T23:44:22.726Z,99.90
2022-12-25T23:46:52.616Z,99.90
2022-12-25T23:49:20.657Z,99.90
2022-12-25T23:51:48.163Z,99.90
2022-12-25T23:54:19.990Z,99.90
2022-12-25T23:56:46.604Z,99.90
2022-12-25T23:59:13.642Z,99.90
